sensor_id;sensor_type;location;lat;lon;timestamp;P1;durP1;ratioP1;P2;durP2;ratioP2
76636;SDS011;65532;52.124;5.480;2023-05-07T00:01:12;7.20;;;4.57;;
76636;SDS011;65532;52.124;5.480;2023-05-07T00:03:38;7.60;;;3.20;;
76636;SDS011;65532;52.124;5.480;2023-05-07T00:06:05;7.07;;;3.33;;
76636;SDS011;65532;52.124;5.480;2023-05-07T00:08:32;6.07;;;4.40;;
76636;SDS011;65532;52.124;5.480;2023-05-07T00:10:59;8.88;;;4.97;;
76636;SDS011;65532;52.124;5.480;2023-05-07T00:13:25;5.78;;;5.05;;
76636;SDS011;65532;52.124;5.480;2023-05-07T00:15:52;8.25;;;5.82;;
76636;SDS011;65532;52.124;5.480;2023-05-07T00:18:18;6.80;;;3.95;;
76636;SDS011;65532;52.124;5.480;2023-05-07T00:20:48;6.68;;;4.28;;
76636;SDS011;65532;52.124;5.480;2023-05-07T00:23:15;6.18;;;5.05;;
76636;SDS011;65532;52.124;5.480;2023-05-07T00:25:41;7.75;;;5.47;;
76636;SDS011;65532;52.124;5.480;2023-05-07T00:28:08;7.35;;;3.97;;
76636;SDS011;65532;52.124;5.480;2023-05-07T00:30:34;6.63;;;3.50;;
76636;SDS011;65532;52.124;5.480;2023-05-07T00:33:00;6.47;;;3.72;;
76636;SDS011;65532;52.124;5.480;2023-05-07T00:35:28;6.38;;;4.93;;
76636;SDS011;65532;52.124;5.480;2023-05-07T00:37:55;5.15;;;3.60;;
76636;SDS011;65532;52.124;5.480;2023-05-07T00:40:21;8.50;;;4.70;;
76636;SDS011;65532;52.124;5.480;2023-05-07T00:42:48;6.68;;;5.60;;
76636;SDS011;65532;52.124;5.480;2023-05-07T00:45:15;8.93;;;3.88;;
76636;SDS011;65532;52.124;5.480;2023-05-07T00:47:42;8.35;;;5.15;;
76636;SDS011;65532;52.124;5.480;2023-05-07T00:50:10;6.75;;;4.60;;
76636;SDS011;65532;52.124;5.480;2023-05-07T00:52:39;6.78;;;5.38;;
76636;SDS011;65532;52.124;5.480;2023-05-07T00:55:06;5.72;;;4.65;;
76636;SDS011;65532;52.124;5.480;2023-05-07T00:57:36;6.93;;;4.20;;
76636;SDS011;65532;52.124;5.480;2023-05-07T01:00:06;9.00;;;6.15;;
76636;SDS011;65532;52.124;5.480;2023-05-07T01:02:35;8.10;;;4.50;;
76636;SDS011;65532;52.124;5.480;2023-05-07T01:05:02;8.13;;;4.57;;
76636;SDS011;65532;52.124;5.480;2023-05-07T01:07:32;6.38;;;3.97;;
76636;SDS011;65532;52.124;5.480;2023-05-07T01:10:00;7.57;;;5.55;;
76636;SDS011;65532;52.124;5.480;2023-05-07T01:12:28;11.13;;;4.57;;
76636;SDS011;65532;52.124;5.480;2023-05-07T01:14:57;6.75;;;4.82;;
76636;SDS011;65532;52.124;5.480;2023-05-07T01:17:24;7.68;;;4.78;;
76636;SDS011;65532;52.124;5.480;2023-05-07T01:19:51;10.50;;;6.80;;
76636;SDS011;65532;52.124;5.480;2023-05-07T01:22:52;8.38;;;6.20;;
76636;SDS011;65532;52.124;5.480;2023-05-07T01:25:13;7.30;;;3.85;;
76636;SDS011;65532;52.124;5.480;2023-05-07T01:27:44;7.78;;;3.75;;
76636;SDS011;65532;52.124;5.480;2023-05-07T01:30:11;10.52;;;4.28;;
76636;SDS011;65532;52.124;5.480;2023-05-07T01:35:22;7.45;;;4.13;;
76636;SDS011;65532;52.124;5.480;2023-05-07T01:37:51;9.25;;;4.70;;
76636;SDS011;65532;52.124;5.480;2023-05-07T01:40:18;7.78;;;4.63;;
76636;SDS011;65532;52.124;5.480;2023-05-07T01:42:45;7.30;;;5.20;;
76636;SDS011;65532;52.124;5.480;2023-05-07T01:45:12;7.57;;;4.80;;
76636;SDS011;65532;52.124;5.480;2023-05-07T01:47:39;7.85;;;5.82;;
76636;SDS011;65532;52.124;5.480;2023-05-07T01:50:06;9.40;;;5.15;;
76636;SDS011;65532;52.124;5.480;2023-05-07T01:52:36;7.07;;;5.25;;
76636;SDS011;65532;52.124;5.480;2023-05-07T01:55:04;9.00;;;6.28;;
76636;SDS011;65532;52.124;5.480;2023-05-07T01:57:32;7.32;;;4.35;;
76636;SDS011;65532;52.124;5.480;2023-05-07T01:59:59;7.93;;;6.10;;
76636;SDS011;65532;52.124;5.480;2023-05-07T02:02:25;7.22;;;4.63;;
76636;SDS011;65532;52.124;5.480;2023-05-07T02:04:54;9.05;;;4.95;;
76636;SDS011;65532;52.124;5.480;2023-05-07T02:07:21;8.75;;;4.72;;
76636;SDS011;65532;52.124;5.480;2023-05-07T02:09:48;8.65;;;5.38;;
76636;SDS011;65532;52.124;5.480;2023-05-07T02:12:14;8.68;;;5.93;;
76636;SDS011;65532;52.124;5.480;2023-05-07T02:14:41;7.60;;;4.28;;
76636;SDS011;65532;52.124;5.480;2023-05-07T02:17:07;7.78;;;4.13;;
76636;SDS011;65532;52.124;5.480;2023-05-07T02:19:34;7.97;;;4.68;;
76636;SDS011;65532;52.124;5.480;2023-05-07T02:22:01;6.60;;;4.22;;
76636;SDS011;65532;52.124;5.480;2023-05-07T02:24:29;7.43;;;4.15;;
76636;SDS011;65532;52.124;5.480;2023-05-07T02:26:56;11.32;;;5.72;;
76636;SDS011;65532;52.124;5.480;2023-05-07T02:29:23;8.13;;;5.25;;
76636;SDS011;65532;52.124;5.480;2023-05-07T02:31:51;8.80;;;5.07;;
76636;SDS011;65532;52.124;5.480;2023-05-07T02:34:19;7.18;;;5.38;;
76636;SDS011;65532;52.124;5.480;2023-05-07T02:36:45;8.70;;;3.92;;
76636;SDS011;65532;52.124;5.480;2023-05-07T02:39:14;7.35;;;4.97;;
76636;SDS011;65532;52.124;5.480;2023-05-07T02:41:41;8.90;;;5.25;;
76636;SDS011;65532;52.124;5.480;2023-05-07T02:44:08;7.05;;;4.10;;
76636;SDS011;65532;52.124;5.480;2023-05-07T02:46:35;5.72;;;3.95;;
76636;SDS011;65532;52.124;5.480;2023-05-07T02:49:06;8.30;;;4.78;;
76636;SDS011;65532;52.124;5.480;2023-05-07T02:51:33;8.02;;;5.90;;
76636;SDS011;65532;52.124;5.480;2023-05-07T02:54:02;7.00;;;5.25;;
76636;SDS011;65532;52.124;5.480;2023-05-07T02:56:30;7.40;;;5.68;;
76636;SDS011;65532;52.124;5.480;2023-05-07T02:58:56;7.47;;;4.75;;
76636;SDS011;65532;52.124;5.480;2023-05-07T03:04:00;8.77;;;5.40;;
76636;SDS011;65532;52.124;5.480;2023-05-07T03:06:27;9.30;;;5.22;;
76636;SDS011;65532;52.124;5.480;2023-05-07T03:08:54;10.95;;;6.65;;
76636;SDS011;65532;52.124;5.480;2023-05-07T03:11:20;10.43;;;6.93;;
76636;SDS011;65532;52.124;5.480;2023-05-07T03:13:47;10.13;;;7.70;;
76636;SDS011;65532;52.124;5.480;2023-05-07T03:16:16;9.93;;;5.47;;
76636;SDS011;65532;52.124;5.480;2023-05-07T03:18:42;8.82;;;6.32;;
76636;SDS011;65532;52.124;5.480;2023-05-07T03:21:09;9.70;;;6.55;;
76636;SDS011;65532;52.124;5.480;2023-05-07T03:23:35;9.40;;;6.13;;
76636;SDS011;65532;52.124;5.480;2023-05-07T03:26:02;8.55;;;7.20;;
76636;SDS011;65532;52.124;5.480;2023-05-07T03:28:29;11.05;;;6.13;;
76636;SDS011;65532;52.124;5.480;2023-05-07T03:30:59;8.63;;;5.35;;
76636;SDS011;65532;52.124;5.480;2023-05-07T03:33:25;8.35;;;5.45;;
76636;SDS011;65532;52.124;5.480;2023-05-07T03:35:54;8.50;;;5.50;;
76636;SDS011;65532;52.124;5.480;2023-05-07T03:38:23;9.23;;;7.00;;
76636;SDS011;65532;52.124;5.480;2023-05-07T03:40:49;10.90;;;6.63;;
76636;SDS011;65532;52.124;5.480;2023-05-07T03:43:17;11.63;;;5.65;;
76636;SDS011;65532;52.124;5.480;2023-05-07T03:45:48;7.93;;;4.55;;
76636;SDS011;65532;52.124;5.480;2023-05-07T03:48:19;9.40;;;5.05;;
76636;SDS011;65532;52.124;5.480;2023-05-07T03:50:47;10.68;;;5.75;;
76636;SDS011;65532;52.124;5.480;2023-05-07T03:53:16;10.93;;;6.28;;
76636;SDS011;65532;52.124;5.480;2023-05-07T03:55:42;8.90;;;5.70;;
76636;SDS011;65532;52.124;5.480;2023-05-07T03:58:09;11.70;;;7.25;;
76636;SDS011;65532;52.124;5.480;2023-05-07T04:00:36;9.18;;;7.10;;
76636;SDS011;65532;52.124;5.480;2023-05-07T04:03:13;14.52;;;6.90;;
76636;SDS011;65532;52.124;5.480;2023-05-07T04:05:40;10.20;;;5.55;;
76636;SDS011;65532;52.124;5.480;2023-05-07T04:08:07;11.27;;;5.60;;
76636;SDS011;65532;52.124;5.480;2023-05-07T04:10:38;11.00;;;5.85;;
76636;SDS011;65532;52.124;5.480;2023-05-07T04:15:35;10.73;;;5.80;;
76636;SDS011;65532;52.124;5.480;2023-05-07T04:18:04;9.23;;;7.10;;
76636;SDS011;65532;52.124;5.480;2023-05-07T04:20:33;9.60;;;5.20;;
76636;SDS011;65532;52.124;5.480;2023-05-07T04:23:04;10.02;;;6.95;;
76636;SDS011;65532;52.124;5.480;2023-05-07T04:25:31;7.72;;;5.13;;
76636;SDS011;65532;52.124;5.480;2023-05-07T04:28:06;8.10;;;5.28;;
76636;SDS011;65532;52.124;5.480;2023-05-07T04:30:32;7.32;;;5.80;;
76636;SDS011;65532;52.124;5.480;2023-05-07T04:33:01;12.88;;;7.70;;
76636;SDS011;65532;52.124;5.480;2023-05-07T04:35:29;12.13;;;6.65;;
76636;SDS011;65532;52.124;5.480;2023-05-07T04:37:56;9.82;;;5.43;;
76636;SDS011;65532;52.124;5.480;2023-05-07T04:40:23;9.40;;;6.55;;
76636;SDS011;65532;52.124;5.480;2023-05-07T04:42:49;11.20;;;7.35;;
76636;SDS011;65532;52.124;5.480;2023-05-07T04:45:17;11.73;;;7.70;;
76636;SDS011;65532;52.124;5.480;2023-05-07T04:47:45;11.07;;;8.40;;
76636;SDS011;65532;52.124;5.480;2023-05-07T04:50:12;14.20;;;7.13;;
76636;SDS011;65532;52.124;5.480;2023-05-07T04:52:41;11.05;;;8.52;;
76636;SDS011;65532;52.124;5.480;2023-05-07T04:55:07;10.32;;;6.10;;
76636;SDS011;65532;52.124;5.480;2023-05-07T04:57:37;11.93;;;6.93;;
76636;SDS011;65532;52.124;5.480;2023-05-07T05:00:05;14.05;;;7.85;;
76636;SDS011;65532;52.124;5.480;2023-05-07T05:02:35;13.43;;;7.20;;
76636;SDS011;65532;52.124;5.480;2023-05-07T05:05:03;16.73;;;9.65;;
76636;SDS011;65532;52.124;5.480;2023-05-07T05:07:29;14.18;;;8.85;;
76636;SDS011;65532;52.124;5.480;2023-05-07T05:09:56;14.20;;;8.05;;
76636;SDS011;65532;52.124;5.480;2023-05-07T05:12:24;16.23;;;8.52;;
76636;SDS011;65532;52.124;5.480;2023-05-07T05:14:50;13.30;;;8.43;;
76636;SDS011;65532;52.124;5.480;2023-05-07T05:17:17;13.60;;;9.00;;
76636;SDS011;65532;52.124;5.480;2023-05-07T05:19:43;11.88;;;8.10;;
76636;SDS011;65532;52.124;5.480;2023-05-07T05:22:10;11.90;;;9.85;;
76636;SDS011;65532;52.124;5.480;2023-05-07T05:24:36;13.10;;;9.20;;
76636;SDS011;65532;52.124;5.480;2023-05-07T05:27:03;14.80;;;9.57;;
76636;SDS011;65532;52.124;5.480;2023-05-07T05:29:30;12.82;;;6.65;;
76636;SDS011;65532;52.124;5.480;2023-05-07T05:31:57;11.02;;;7.25;;
76636;SDS011;65532;52.124;5.480;2023-05-07T05:34:26;11.45;;;7.45;;
76636;SDS011;65532;52.124;5.480;2023-05-07T05:36:53;13.50;;;8.40;;
76636;SDS011;65532;52.124;5.480;2023-05-07T05:39:19;13.50;;;8.43;;
76636;SDS011;65532;52.124;5.480;2023-05-07T05:41:46;15.65;;;8.18;;
76636;SDS011;65532;52.124;5.480;2023-05-07T05:44:13;15.43;;;9.77;;
76636;SDS011;65532;52.124;5.480;2023-05-07T05:46:41;15.18;;;9.85;;
76636;SDS011;65532;52.124;5.480;2023-05-07T05:49:09;14.48;;;7.82;;
76636;SDS011;65532;52.124;5.480;2023-05-07T05:51:36;13.18;;;7.97;;
76636;SDS011;65532;52.124;5.480;2023-05-07T05:54:03;18.25;;;8.60;;
76636;SDS011;65532;52.124;5.480;2023-05-07T05:56:31;14.15;;;8.02;;
76636;SDS011;65532;52.124;5.480;2023-05-07T05:58:58;13.70;;;7.88;;
76636;SDS011;65532;52.124;5.480;2023-05-07T06:01:25;15.10;;;7.85;;
76636;SDS011;65532;52.124;5.480;2023-05-07T06:03:53;14.93;;;9.25;;
76636;SDS011;65532;52.124;5.480;2023-05-07T06:06:19;13.88;;;9.25;;
76636;SDS011;65532;52.124;5.480;2023-05-07T06:08:46;11.65;;;7.00;;
76636;SDS011;65532;52.124;5.480;2023-05-07T06:11:17;12.40;;;7.10;;
76636;SDS011;65532;52.124;5.480;2023-05-07T06:13:45;13.43;;;7.28;;
76636;SDS011;65532;52.124;5.480;2023-05-07T06:16:12;15.88;;;8.10;;
76636;SDS011;65532;52.124;5.480;2023-05-07T06:18:40;13.10;;;7.72;;
76636;SDS011;65532;52.124;5.480;2023-05-07T06:21:07;13.25;;;8.15;;
76636;SDS011;65532;52.124;5.480;2023-05-07T06:23:34;10.80;;;7.25;;
76636;SDS011;65532;52.124;5.480;2023-05-07T06:26:01;12.77;;;7.97;;
76636;SDS011;65532;52.124;5.480;2023-05-07T06:28:33;12.45;;;6.35;;
76636;SDS011;65532;52.124;5.480;2023-05-07T06:31:17;12.32;;;8.18;;
76636;SDS011;65532;52.124;5.480;2023-05-07T06:34:00;14.70;;;9.38;;
76636;SDS011;65532;52.124;5.480;2023-05-07T06:36:33;12.55;;;8.52;;
76636;SDS011;65532;52.124;5.480;2023-05-07T06:39:05;12.48;;;7.63;;
76636;SDS011;65532;52.124;5.480;2023-05-07T06:41:31;13.43;;;8.18;;
76636;SDS011;65532;52.124;5.480;2023-05-07T06:44:05;13.18;;;7.55;;
76636;SDS011;65532;52.124;5.480;2023-05-07T06:46:42;12.98;;;9.18;;
76636;SDS011;65532;52.124;5.480;2023-05-07T06:49:09;12.60;;;7.18;;
76636;SDS011;65532;52.124;5.480;2023-05-07T06:51:36;12.52;;;8.52;;
76636;SDS011;65532;52.124;5.480;2023-05-07T06:54:02;12.05;;;7.18;;
76636;SDS011;65532;52.124;5.480;2023-05-07T06:56:32;13.02;;;8.02;;
76636;SDS011;65532;52.124;5.480;2023-05-07T06:59:02;11.93;;;6.97;;
76636;SDS011;65532;52.124;5.480;2023-05-07T07:01:34;14.10;;;8.43;;
76636;SDS011;65532;52.124;5.480;2023-05-07T07:04:02;18.35;;;9.13;;
76636;SDS011;65532;52.124;5.480;2023-05-07T07:06:29;14.02;;;8.15;;
76636;SDS011;65532;52.124;5.480;2023-05-07T07:08:59;16.17;;;8.25;;
76636;SDS011;65532;52.124;5.480;2023-05-07T07:11:27;15.93;;;10.10;;
76636;SDS011;65532;52.124;5.480;2023-05-07T07:13:55;16.88;;;11.82;;
76636;SDS011;65532;52.124;5.480;2023-05-07T07:16:22;12.70;;;8.90;;
76636;SDS011;65532;52.124;5.480;2023-05-07T07:18:51;14.40;;;9.85;;
76636;SDS011;65532;52.124;5.480;2023-05-07T07:21:19;13.43;;;8.60;;
76636;SDS011;65532;52.124;5.480;2023-05-07T07:23:46;14.57;;;9.60;;
76636;SDS011;65532;52.124;5.480;2023-05-07T07:26:12;13.82;;;7.70;;
76636;SDS011;65532;52.124;5.480;2023-05-07T07:28:43;14.70;;;8.77;;
76636;SDS011;65532;52.124;5.480;2023-05-07T07:31:13;13.60;;;7.20;;
76636;SDS011;65532;52.124;5.480;2023-05-07T07:33:40;14.32;;;8.60;;
76636;SDS011;65532;52.124;5.480;2023-05-07T07:36:06;13.57;;;8.32;;
76636;SDS011;65532;52.124;5.480;2023-05-07T07:38:34;13.48;;;7.53;;
76636;SDS011;65532;52.124;5.480;2023-05-07T07:41:01;13.27;;;7.22;;
76636;SDS011;65532;52.124;5.480;2023-05-07T07:43:29;12.95;;;7.95;;
76636;SDS011;65532;52.124;5.480;2023-05-07T07:45:55;12.27;;;7.57;;
76636;SDS011;65532;52.124;5.480;2023-05-07T07:48:22;14.15;;;9.27;;
76636;SDS011;65532;52.124;5.480;2023-05-07T07:50:49;13.25;;;8.77;;
76636;SDS011;65532;52.124;5.480;2023-05-07T07:53:18;14.93;;;7.68;;
76636;SDS011;65532;52.124;5.480;2023-05-07T07:55:44;12.70;;;7.32;;
76636;SDS011;65532;52.124;5.480;2023-05-07T07:58:15;14.00;;;7.85;;
76636;SDS011;65532;52.124;5.480;2023-05-07T08:00:41;12.70;;;7.90;;
76636;SDS011;65532;52.124;5.480;2023-05-07T08:03:09;11.90;;;7.00;;
76636;SDS011;65532;52.124;5.480;2023-05-07T08:05:40;14.50;;;7.90;;
76636;SDS011;65532;52.124;5.480;2023-05-07T08:08:07;14.02;;;7.85;;
76636;SDS011;65532;52.124;5.480;2023-05-07T08:10:36;12.15;;;7.07;;
76636;SDS011;65532;52.124;5.480;2023-05-07T08:13:10;13.77;;;7.63;;
76636;SDS011;65532;52.124;5.480;2023-05-07T08:15:38;14.80;;;9.10;;
76636;SDS011;65532;52.124;5.480;2023-05-07T08:18:05;11.80;;;7.88;;
76636;SDS011;65532;52.124;5.480;2023-05-07T08:20:33;14.98;;;9.18;;
76636;SDS011;65532;52.124;5.480;2023-05-07T08:23:02;11.45;;;7.60;;
76636;SDS011;65532;52.124;5.480;2023-05-07T08:25:28;13.32;;;8.52;;
76636;SDS011;65532;52.124;5.480;2023-05-07T08:27:55;12.57;;;7.85;;
76636;SDS011;65532;52.124;5.480;2023-05-07T08:30:22;12.52;;;7.80;;
76636;SDS011;65532;52.124;5.480;2023-05-07T08:32:49;14.82;;;9.68;;
76636;SDS011;65532;52.124;5.480;2023-05-07T08:35:16;13.27;;;8.45;;
76636;SDS011;65532;52.124;5.480;2023-05-07T08:37:43;13.73;;;8.40;;
76636;SDS011;65532;52.124;5.480;2023-05-07T08:40:10;14.00;;;9.75;;
76636;SDS011;65532;52.124;5.480;2023-05-07T08:42:40;13.35;;;8.82;;
76636;SDS011;65532;52.124;5.480;2023-05-07T08:45:09;14.38;;;9.48;;
76636;SDS011;65532;52.124;5.480;2023-05-07T08:47:43;11.93;;;7.55;;
76636;SDS011;65532;52.124;5.480;2023-05-07T08:50:12;16.73;;;9.00;;
76636;SDS011;65532;52.124;5.480;2023-05-07T08:52:42;13.95;;;8.75;;
76636;SDS011;65532;52.124;5.480;2023-05-07T08:57:36;15.32;;;9.95;;
76636;SDS011;65532;52.124;5.480;2023-05-07T09:00:06;14.45;;;8.15;;
76636;SDS011;65532;52.124;5.480;2023-05-07T09:02:36;17.25;;;10.68;;
76636;SDS011;65532;52.124;5.480;2023-05-07T09:05:04;13.85;;;9.57;;
76636;SDS011;65532;52.124;5.480;2023-05-07T09:07:32;20.25;;;9.88;;
76636;SDS011;65532;52.124;5.480;2023-05-07T09:10:03;19.13;;;11.88;;
76636;SDS011;65532;52.124;5.480;2023-05-07T09:12:32;16.77;;;10.98;;
76636;SDS011;65532;52.124;5.480;2023-05-07T09:14:59;16.73;;;9.90;;
76636;SDS011;65532;52.124;5.480;2023-05-07T09:17:27;14.25;;;10.52;;
76636;SDS011;65532;52.124;5.480;2023-05-07T09:19:54;17.63;;;10.38;;
76636;SDS011;65532;52.124;5.480;2023-05-07T09:22:21;16.05;;;12.35;;
76636;SDS011;65532;52.124;5.480;2023-05-07T09:24:56;16.83;;;11.02;;
76636;SDS011;65532;52.124;5.480;2023-05-07T09:27:25;18.45;;;10.18;;
76636;SDS011;65532;52.124;5.480;2023-05-07T09:29:53;20.30;;;12.55;;
76636;SDS011;65532;52.124;5.480;2023-05-07T09:32:20;19.40;;;10.50;;
76636;SDS011;65532;52.124;5.480;2023-05-07T09:34:47;15.40;;;9.20;;
76636;SDS011;65532;52.124;5.480;2023-05-07T09:37:15;17.85;;;10.63;;
76636;SDS011;65532;52.124;5.480;2023-05-07T09:39:43;18.08;;;10.15;;
76636;SDS011;65532;52.124;5.480;2023-05-07T09:42:13;17.80;;;11.70;;
76636;SDS011;65532;52.124;5.480;2023-05-07T09:44:41;17.90;;;10.98;;
76636;SDS011;65532;52.124;5.480;2023-05-07T09:47:15;16.55;;;9.18;;
76636;SDS011;65532;52.124;5.480;2023-05-07T09:49:49;16.42;;;10.80;;
76636;SDS011;65532;52.124;5.480;2023-05-07T09:52:19;18.42;;;11.50;;
76636;SDS011;65532;52.124;5.480;2023-05-07T09:54:50;18.38;;;9.65;;
76636;SDS011;65532;52.124;5.480;2023-05-07T09:57:21;16.48;;;9.80;;
76636;SDS011;65532;52.124;5.480;2023-05-07T09:59:54;16.92;;;9.68;;
76636;SDS011;65532;52.124;5.480;2023-05-07T10:02:25;15.45;;;9.32;;
76636;SDS011;65532;52.124;5.480;2023-05-07T10:04:55;16.20;;;10.55;;
76636;SDS011;65532;52.124;5.480;2023-05-07T10:07:27;18.92;;;11.80;;
76636;SDS011;65532;52.124;5.480;2023-05-07T10:09:58;19.17;;;11.82;;
76636;SDS011;65532;52.124;5.480;2023-05-07T10:12:34;17.17;;;11.88;;
76636;SDS011;65532;52.124;5.480;2023-05-07T10:15:10;18.58;;;10.90;;
76636;SDS011;65532;52.124;5.480;2023-05-07T10:17:40;14.57;;;9.48;;
76636;SDS011;65532;52.124;5.480;2023-05-07T10:20:09;19.90;;;9.68;;
76636;SDS011;65532;52.124;5.480;2023-05-07T10:22:41;16.90;;;9.68;;
76636;SDS011;65532;52.124;5.480;2023-05-07T10:25:17;17.17;;;11.02;;
76636;SDS011;65532;52.124;5.480;2023-05-07T10:27:52;15.63;;;10.05;;
76636;SDS011;65532;52.124;5.480;2023-05-07T10:33:11;18.80;;;9.60;;
76636;SDS011;65532;52.124;5.480;2023-05-07T10:35:43;16.02;;;9.85;;
76636;SDS011;65532;52.124;5.480;2023-05-07T10:38:11;15.75;;;10.05;;
76636;SDS011;65532;52.124;5.480;2023-05-07T10:40:41;16.13;;;9.68;;
76636;SDS011;65532;52.124;5.480;2023-05-07T10:43:07;16.52;;;9.23;;
76636;SDS011;65532;52.124;5.480;2023-05-07T10:52:11;14.73;;;9.75;;
76636;SDS011;65532;52.124;5.480;2023-05-07T10:54:37;16.25;;;10.02;;
76636;SDS011;65532;52.124;5.480;2023-05-07T10:57:32;16.95;;;10.98;;
76636;SDS011;65532;52.124;5.480;2023-05-07T11:03:05;14.93;;;8.88;;
76636;SDS011;65532;52.124;5.480;2023-05-07T11:05:43;15.45;;;10.05;;
76636;SDS011;65532;52.124;5.480;2023-05-07T11:08:19;15.35;;;10.40;;
76636;SDS011;65532;52.124;5.480;2023-05-07T11:10:55;15.30;;;8.90;;
76636;SDS011;65532;52.124;5.480;2023-05-07T11:16:24;17.27;;;10.85;;
76636;SDS011;65532;52.124;5.480;2023-05-07T11:19:01;16.48;;;10.60;;
76636;SDS011;65532;52.124;5.480;2023-05-07T11:21:35;15.57;;;11.25;;
76636;SDS011;65532;52.124;5.480;2023-05-07T11:24:21;16.80;;;9.88;;
76636;SDS011;65532;52.124;5.480;2023-05-07T11:26:53;16.27;;;10.82;;
76636;SDS011;65532;52.124;5.480;2023-05-07T11:29:22;15.13;;;10.48;;
76636;SDS011;65532;52.124;5.480;2023-05-07T11:31:55;16.42;;;9.38;;
76636;SDS011;65532;52.124;5.480;2023-05-07T11:34:25;19.30;;;11.60;;
76636;SDS011;65532;52.124;5.480;2023-05-07T11:39:32;18.20;;;11.75;;
76636;SDS011;65532;52.124;5.480;2023-05-07T11:41:59;17.92;;;10.30;;
76636;SDS011;65532;52.124;5.480;2023-05-07T11:44:40;17.95;;;10.07;;
76636;SDS011;65532;52.124;5.480;2023-05-07T11:47:19;18.25;;;11.68;;
76636;SDS011;65532;52.124;5.480;2023-05-07T11:49:47;16.30;;;11.13;;
76636;SDS011;65532;52.124;5.480;2023-05-07T11:52:15;17.88;;;10.07;;
76636;SDS011;65532;52.124;5.480;2023-05-07T11:54:52;18.30;;;11.30;;
76636;SDS011;65532;52.124;5.480;2023-05-07T11:57:21;13.70;;;9.63;;
76636;SDS011;65532;52.124;5.480;2023-05-07T11:59:57;15.32;;;11.77;;
76636;SDS011;65532;52.124;5.480;2023-05-07T12:02:27;17.67;;;10.95;;
76636;SDS011;65532;52.124;5.480;2023-05-07T12:05:01;15.65;;;9.90;;
76636;SDS011;65532;52.124;5.480;2023-05-07T12:07:28;15.18;;;8.48;;
76636;SDS011;65532;52.124;5.480;2023-05-07T12:09:55;15.40;;;10.50;;
76636;SDS011;65532;52.124;5.480;2023-05-07T12:12:22;15.60;;;10.30;;
76636;SDS011;65532;52.124;5.480;2023-05-07T12:14:48;14.93;;;8.50;;
76636;SDS011;65532;52.124;5.480;2023-05-07T12:17:15;14.10;;;9.80;;
76636;SDS011;65532;52.124;5.480;2023-05-07T12:19:43;13.43;;;8.60;;
76636;SDS011;65532;52.124;5.480;2023-05-07T12:22:11;13.80;;;9.32;;
76636;SDS011;65532;52.124;5.480;2023-05-07T12:24:45;13.07;;;7.90;;
76636;SDS011;65532;52.124;5.480;2023-05-07T12:27:15;16.15;;;10.55;;
76636;SDS011;65532;52.124;5.480;2023-05-07T12:29:48;11.85;;;8.57;;
76636;SDS011;65532;52.124;5.480;2023-05-07T12:32:25;12.48;;;8.10;;
76636;SDS011;65532;52.124;5.480;2023-05-07T12:34:52;12.52;;;9.18;;
76636;SDS011;65532;52.124;5.480;2023-05-07T12:37:24;15.07;;;8.63;;
76636;SDS011;65532;52.124;5.480;2023-05-07T12:40:04;13.18;;;8.38;;
76636;SDS011;65532;52.124;5.480;2023-05-07T12:42:37;14.00;;;8.75;;
76636;SDS011;65532;52.124;5.480;2023-05-07T12:45:12;15.27;;;8.55;;
76636;SDS011;65532;52.124;5.480;2023-05-07T12:50:15;12.07;;;6.90;;
76636;SDS011;65532;52.124;5.480;2023-05-07T12:52:43;11.70;;;8.60;;
76636;SDS011;65532;52.124;5.480;2023-05-07T12:55:12;11.90;;;7.53;;
76636;SDS011;65532;52.124;5.480;2023-05-07T12:57:45;14.25;;;8.98;;
76636;SDS011;65532;52.124;5.480;2023-05-07T13:00:14;12.80;;;8.88;;
76636;SDS011;65532;52.124;5.480;2023-05-07T13:02:42;12.38;;;8.20;;
76636;SDS011;65532;52.124;5.480;2023-05-07T13:05:12;14.18;;;8.13;;
76636;SDS011;65532;52.124;5.480;2023-05-07T13:07:40;13.40;;;8.02;;
76636;SDS011;65532;52.124;5.480;2023-05-07T13:10:07;11.65;;;8.73;;
76636;SDS011;65532;52.124;5.480;2023-05-07T13:12:34;11.85;;;7.38;;
76636;SDS011;65532;52.124;5.480;2023-05-07T13:15:01;15.15;;;9.05;;
76636;SDS011;65532;52.124;5.480;2023-05-07T13:17:27;13.45;;;7.63;;
76636;SDS011;65532;52.124;5.480;2023-05-07T13:19:54;11.80;;;8.38;;
76636;SDS011;65532;52.124;5.480;2023-05-07T13:22:20;15.90;;;10.85;;
76636;SDS011;65532;52.124;5.480;2023-05-07T13:24:47;14.65;;;8.57;;
76636;SDS011;65532;52.124;5.480;2023-05-07T13:27:13;13.65;;;8.02;;
76636;SDS011;65532;52.124;5.480;2023-05-07T13:29:39;13.32;;;9.07;;
76636;SDS011;65532;52.124;5.480;2023-05-07T13:32:06;12.55;;;8.93;;
76636;SDS011;65532;52.124;5.480;2023-05-07T13:34:33;14.18;;;8.57;;
76636;SDS011;65532;52.124;5.480;2023-05-07T13:36:59;14.93;;;9.85;;
76636;SDS011;65532;52.124;5.480;2023-05-07T13:39:26;16.15;;;9.68;;
76636;SDS011;65532;52.124;5.480;2023-05-07T13:41:52;14.27;;;8.30;;
76636;SDS011;65532;52.124;5.480;2023-05-07T13:44:19;13.73;;;10.32;;
76636;SDS011;65532;52.124;5.480;2023-05-07T13:46:45;16.13;;;10.15;;
76636;SDS011;65532;52.124;5.480;2023-05-07T13:49:12;14.65;;;9.15;;
76636;SDS011;65532;52.124;5.480;2023-05-07T13:51:39;15.20;;;8.65;;
76636;SDS011;65532;52.124;5.480;2023-05-07T13:54:05;14.65;;;7.57;;
76636;SDS011;65532;52.124;5.480;2023-05-07T13:56:31;13.43;;;9.10;;
76636;SDS011;65532;52.124;5.480;2023-05-07T13:58:58;16.33;;;9.10;;
76636;SDS011;65532;52.124;5.480;2023-05-07T14:01:26;12.52;;;8.15;;
76636;SDS011;65532;52.124;5.480;2023-05-07T14:03:53;15.73;;;10.73;;
76636;SDS011;65532;52.124;5.480;2023-05-07T14:06:19;13.20;;;8.52;;
76636;SDS011;65532;52.124;5.480;2023-05-07T14:08:46;12.90;;;8.63;;
76636;SDS011;65532;52.124;5.480;2023-05-07T14:11:12;10.95;;;7.68;;
76636;SDS011;65532;52.124;5.480;2023-05-07T14:13:39;13.93;;;8.18;;
76636;SDS011;65532;52.124;5.480;2023-05-07T14:16:06;14.73;;;9.45;;
76636;SDS011;65532;52.124;5.480;2023-05-07T14:18:32;13.50;;;8.65;;
76636;SDS011;65532;52.124;5.480;2023-05-07T14:21:00;14.93;;;9.00;;
76636;SDS011;65532;52.124;5.480;2023-05-07T14:23:26;12.90;;;7.75;;
76636;SDS011;65532;52.124;5.480;2023-05-07T14:25:53;10.23;;;7.88;;
76636;SDS011;65532;52.124;5.480;2023-05-07T14:28:21;14.25;;;9.27;;
76636;SDS011;65532;52.124;5.480;2023-05-07T14:30:47;11.93;;;7.95;;
76636;SDS011;65532;52.124;5.480;2023-05-07T14:33:14;14.32;;;8.80;;
76636;SDS011;65532;52.124;5.480;2023-05-07T14:35:41;13.57;;;8.50;;
76636;SDS011;65532;52.124;5.480;2023-05-07T14:38:07;13.02;;;7.93;;
76636;SDS011;65532;52.124;5.480;2023-05-07T14:40:34;13.75;;;7.55;;
76636;SDS011;65532;52.124;5.480;2023-05-07T14:43:00;12.50;;;6.97;;
76636;SDS011;65532;52.124;5.480;2023-05-07T14:45:27;11.13;;;6.65;;
76636;SDS011;65532;52.124;5.480;2023-05-07T14:47:53;13.57;;;8.45;;
76636;SDS011;65532;52.124;5.480;2023-05-07T14:50:20;12.93;;;7.05;;
76636;SDS011;65532;52.124;5.480;2023-05-07T14:52:46;11.95;;;7.28;;
76636;SDS011;65532;52.124;5.480;2023-05-07T14:55:13;11.80;;;7.20;;
76636;SDS011;65532;52.124;5.480;2023-05-07T14:57:39;11.98;;;7.50;;
76636;SDS011;65532;52.124;5.480;2023-05-07T15:00:06;12.43;;;7.10;;
76636;SDS011;65532;52.124;5.480;2023-05-07T15:02:34;13.07;;;7.63;;
76636;SDS011;65532;52.124;5.480;2023-05-07T15:05:01;15.23;;;8.25;;
76636;SDS011;65532;52.124;5.480;2023-05-07T15:07:27;12.40;;;9.23;;
76636;SDS011;65532;52.124;5.480;2023-05-07T15:09:54;16.83;;;8.90;;
76636;SDS011;65532;52.124;5.480;2023-05-07T15:12:21;16.20;;;8.25;;
76636;SDS011;65532;52.124;5.480;2023-05-07T15:14:47;15.85;;;8.75;;